Terminal Aerodrome Forecast
Issued by NWS

Home | Current Version | Previous Version | Text Only | Print | Product List | Glossary On
Versions: 1 2 3 4 5 6 7 8 9 10 11 12 13
000
FTUS43 KMPX 210520
TAFRNH
TAF
KRNH 210520Z 2106/2206 30006KT P6SM FEW010 SCT025 BKN040
     FM211200 29007KT P6SM SKC
     FM220200 19003KT P6SM SKC=

USA.gov is the U.S. government's official web portal to all federal, state and local government web resources and services.